Abel Tasman — PCVM — position and weather

sailwx.info

Track history (hours):
 
Tides and Currents Weather Stations Pressure Air Temp Water Temp Dewpoint Dewpoint Depression Visibility Wind Speed Wind Dir Waves Ship Positions

Abel Tasman (Netherlands)

Last reported at 2020-Aug-07 06:30 UTC. Time now 2020-Aug-07 09:44 UTC.
Position N 54°23' E 010°46'.

Length 38 m; draft 2.4 m.

Type: Sailing vessel. MMSI: 245877000.

Date/timePositionNaut miles runAvg speedWind from/ knotsBaromVisibWave heightAir tempDewpointWater temp
2020-Aug-07 06:30N 54°23' E 010°46'5 3.1
2020-Aug-07 04:54N 54°19' E 010°41'0 0.0
2020-Aug-07 04:29N 54°19' E 010°41'0 0.0
2020-Aug-07 03:52N 54°19' E 010°41'0 0.0
2020-Aug-07 03:28N 54°19' E 010°41'0 0.0
2020-Aug-07 00:55N 54°19' E 010°41'0 0.0
2020-Aug-06 23:29N 54°19' E 010°41'0 0.0
2020-Aug-06 21:20N 54°19' E 010°41'0 0.0
2020-Aug-06 19:38N 54°19' E 010°41'0 0.0
2020-Aug-06 15:53N 54°19' E 010°41'5 2.3
2020-Aug-06 13:30N 54°24' E 010°37'7 0.9
2020-Aug-06 05:49N 54°25' E 010°25'0 0.0
2020-Aug-06 05:30N 54°25' E 010°25'0 0.0
2020-Aug-06 04:19N 54°25' E 010°25'0 0.0
2020-Aug-06 03:49N 54°25' E 010°25'0 0.0
2020-Aug-06 01:49N 54°25' E 010°25'0 0.0
2020-Aug-06 01:25N 54°25' E 010°25'0 0.0
2020-Aug-05 22:12N 54°25' E 010°25'0 0.0
2020-Aug-05 20:00N 54°25' E 010°25'0 0.0
2020-Aug-05 19:11N 54°25' E 010°25'0 0.0
2020-Aug-05 17:27N 54°25' E 010°25'10 2.8
2020-Aug-05 14:00N 54°22' E 010°10'1 0.7
2020-Aug-05 13:00N 54°22' E 010°08'2 3.9
2020-Aug-05 12:30N 54°22' E 010°05'15 5.1
2020-Aug-05 09:30N 54°18' E 009°40'0 0.0
2020-Aug-05 06:28N 54°18' E 009°40'0 0.0
2020-Aug-05 04:27N 54°18' E 009°40'0 0.0
2020-Aug-05 00:29N 54°18' E 009°40'0 0.0
2020-Aug-04 22:09N 54°18' E 009°40'0 0.0
2020-Aug-04 20:57N 54°18' E 009°40'0 0.0
2020-Aug-04 19:45N 54°18' E 009°40'6 2.0
2020-Aug-04 17:00N 54°13' E 009°35'34 5.6
2020-Aug-04 10:59N 53°50' E 008°53'11 7.8
2020-Aug-04 09:30N 53°57' E 008°37'7 9.8
2020-Aug-04 08:47N 53°59' E 008°25'4 9.3
2020-Aug-04 08:22N 53°59' E 008°19'29 7.6
2020-Aug-04 04:35N 53°53' E 007°31'4 5.5
2020-Aug-04 03:57N 53°52' E 007°26'5 5.3
2020-Aug-04 03:00N 53°50' E 007°18'57 6.0
2020-Aug-03 17:30N 53°33' E 005°45'5 4.7
2020-Aug-03 16:30N 53°32' E 005°38'5 5.1
2020-Aug-03 15:30N 53°31' E 005°29'14 5.5
2020-Aug-03 12:56N 53°26' E 005°07'8 4.0
2020-Aug-03 11:00N 53°20' E 004°58'8 7.5
2020-Aug-03 10:00N 53°18' E 005°10'3 6.1
2020-Aug-03 09:30N 53°15' E 005°10'4 7.1
2020-Aug-03 09:00N 53°14' E 005°15'7 3.3
2020-Aug-03 06:58N 53°10' E 005°25'0 0.0
2020-Aug-03 05:28N 53°10' E 005°25'0 0.0
2020-Aug-03 04:28N 53°10' E 005°25'0 0.0
2020-Aug-03 03:28N 53°10' E 005°25'0 0.0
2020-Aug-02 23:58N 53°10' E 005°25'0 0.0
2020-Aug-02 17:28N 53°10' E 005°25'0 0.0
2020-Aug-02 16:28N 53°10' E 005°25'0 0.0
2020-Aug-02 13:28N 53°10' E 005°25'0 0.0
2020-Aug-02 12:58N 53°10' E 005°25'0 0.0
2020-Aug-02 12:28N 53°10' E 005°25'0 0.0
2020-Aug-02 10:28N 53°10' E 005°25'0 0.0
2020-Aug-02 09:58N 53°10' E 005°25'0 0.0
2020-Aug-02 06:28N 53°10' E 005°25'0 0.0
2020-Aug-02 04:58N 53°10' E 005°25'0 0.0
2020-Aug-02 04:28N 53°10' E 005°25'0 0.0
2020-Aug-02 03:58N 53°10' E 005°25'0 0.0
2020-Aug-02 02:58N 53°10' E 005°25'0 0.0
2020-Aug-02 01:58N 53°10' E 005°25'0 0.0
2020-Aug-02 00:58N 53°10' E 005°25'0 0.0
2020-Aug-01 22:28N 53°10' E 005°25'0 0.0
2020-Aug-01 16:00N 53°10' E 005°25'8 4.1
2020-Aug-01 14:00N 53°14' E 005°13'7 2.8
2020-Aug-01 11:25N 53°21' E 005°13'0 0.0
2020-Aug-01 02:46N 53°22' E 005°13'0 0.0
2020-Aug-01 02:28N 53°22' E 005°13'0 0.0
2020-Aug-01 00:27N 53°22' E 005°13'0 0.0
2020-Jul-31 17:45N 53°22' E 005°13'0 0.0
2020-Jul-31 11:52N 53°22' E 005°13'0 0.0
2020-Jul-31 09:55N 53°22' E 005°13'0 0.0
2020-Jul-31 06:24N 53°22' E 005°13'0 0.0
2020-Jul-31 06:01N 53°22' E 005°13'0 0.0
2020-Jul-31 04:56N 53°22' E 005°13'0 0.0
2020-Jul-31 03:55N 53°22' E 005°13'0 0.0
2020-Jul-31 00:55N 53°22' E 005°13'0 0.0
2020-Jul-31 00:26N 53°22' E 005°13'0 0.0
2020-Jul-30 22:26N 53°22' E 005°13'0 0.0
2020-Jul-30 21:26N 53°22' E 005°13'0 0.0
2020-Jul-30 20:26N 53°22' E 005°13'0 0.0
2020-Jul-30 19:26N 53°22' E 005°13'0 0.0
2020-Jul-30 13:17N 53°22' E 005°13'4 1.3
2020-Jul-30 10:30N 53°18' E 005°14'4 2.9
2020-Jul-30 09:00N 53°14' E 005°13'3 5.7
2020-Jul-30 08:30N 53°13' E 005°18'10 4.0
2020-Jul-30 06:00N 53°04' E 005°21'2 0.8
2020-Jul-30 04:00N 53°03' E 005°24'0 0.0
2020-Jul-29 21:00N 53°03' E 005°24'0 0.0
2020-Jul-29 20:30N 53°03' E 005°24'0 0.0
2020-Jul-29 19:30N 53°03' E 005°24'0 0.0
2020-Jul-29 17:00N 53°03' E 005°24'0 0.0
2020-Jul-29 16:30N 53°03' E 005°24'2 1.7
2020-Jul-29 15:30N 53°04' E 005°21'3 3.2
2020-Jul-29 14:30N 53°01' E 005°20'19 3.8
2020-Jul-29 09:31N 52°42' E 005°17'0 0.0
2020-Jul-29 05:00N 52°42' E 005°17'0 0.0
2020-Jul-29 02:59N 52°42' E 005°17'0 0.0
2020-Jul-29 00:59N 52°42' E 005°17'0 0.0
2020-Jul-28 23:29N 52°42' E 005°17'0 0.0
2020-Jul-28 19:29N 52°42' E 005°17'0 0.0
2020-Jul-28 16:59N 52°42' E 005°17'0 0.0
2020-Jul-28 14:59N 52°42' E 005°17'5 2.6
2020-Jul-28 13:00N 52°42' E 005°26'9 5.7
2020-Jul-28 11:30N 52°37' E 005°37'2 4.6
2020-Jul-28 11:00N 52°37' E 005°41'2 4.8
2020-Jul-28 10:30N 52°36' E 005°45'1 0.5
2020-Jul-28 09:28N 52°36' E 005°46'  
Track history (hours):
 
Tides and Currents Weather Stations Pressure Air Temp Water Temp Dewpoint Dewpoint Depression Visibility Wind Speed Wind Dir Waves Ship Positions

Abel Tasman (Netherlands)

Last reported at 2020-Aug-07 06:30 UTC. Time now 2020-Aug-07 09:44 UTC.
Position N 54°23' E 010°46'.

Length 38 m; draft 2.4 m.

Type: Sailing vessel. MMSI: 245877000.

Date/timePositionNaut miles runAvg speedWind from/ knotsBaromVisibWave heightAir tempDewpointWater temp
2020-Aug-07 06:30N 54°23' E 010°46'5 3.1
2020-Aug-07 04:54N 54°19' E 010°41'0 0.0
2020-Aug-07 04:29N 54°19' E 010°41'0 0.0
2020-Aug-07 03:52N 54°19' E 010°41'0 0.0
2020-Aug-07 03:28N 54°19' E 010°41'0 0.0
2020-Aug-07 00:55N 54°19' E 010°41'0 0.0
2020-Aug-06 23:29N 54°19' E 010°41'0 0.0
2020-Aug-06 21:20N 54°19' E 010°41'0 0.0
2020-Aug-06 19:38N 54°19' E 010°41'0 0.0
2020-Aug-06 15:53N 54°19' E 010°41'5 2.3
2020-Aug-06 13:30N 54°24' E 010°37'7 0.9
2020-Aug-06 05:49N 54°25' E 010°25'0 0.0
2020-Aug-06 05:30N 54°25' E 010°25'0 0.0
2020-Aug-06 04:19N 54°25' E 010°25'0 0.0
2020-Aug-06 03:49N 54°25' E 010°25'0 0.0
2020-Aug-06 01:49N 54°25' E 010°25'0 0.0
2020-Aug-06 01:25N 54°25' E 010°25'0 0.0
2020-Aug-05 22:12N 54°25' E 010°25'0 0.0
2020-Aug-05 20:00N 54°25' E 010°25'0 0.0
2020-Aug-05 19:11N 54°25' E 010°25'0 0.0
2020-Aug-05 17:27N 54°25' E 010°25'10 2.8
2020-Aug-05 14:00N 54°22' E 010°10'1 0.7
2020-Aug-05 13:00N 54°22' E 010°08'2 3.9
2020-Aug-05 12:30N 54°22' E 010°05'15 5.1
2020-Aug-05 09:30N 54°18' E 009°40'0 0.0
2020-Aug-05 06:28N 54°18' E 009°40'0 0.0
2020-Aug-05 04:27N 54°18' E 009°40'0 0.0
2020-Aug-05 00:29N 54°18' E 009°40'0 0.0
2020-Aug-04 22:09N 54°18' E 009°40'0 0.0
2020-Aug-04 20:57N 54°18' E 009°40'0 0.0
2020-Aug-04 19:45N 54°18' E 009°40'6 2.0
2020-Aug-04 17:00N 54°13' E 009°35'34 5.6
2020-Aug-04 10:59N 53°50' E 008°53'11 7.8
2020-Aug-04 09:30N 53°57' E 008°37'7 9.8
2020-Aug-04 08:47N 53°59' E 008°25'4 9.3
2020-Aug-04 08:22N 53°59' E 008°19'29 7.6
2020-Aug-04 04:35N 53°53' E 007°31'4 5.5
2020-Aug-04 03:57N 53°52' E 007°26'5 5.3
2020-Aug-04 03:00N 53°50' E 007°18'57 6.0
2020-Aug-03 17:30N 53°33' E 005°45'5 4.7
2020-Aug-03 16:30N 53°32' E 005°38'5 5.1
2020-Aug-03 15:30N 53°31' E 005°29'14 5.5
2020-Aug-03 12:56N 53°26' E 005°07'8 4.0
2020-Aug-03 11:00N 53°20' E 004°58'8 7.5
2020-Aug-03 10:00N 53°18' E 005°10'3 6.1
2020-Aug-03 09:30N 53°15' E 005°10'4 7.1
2020-Aug-03 09:00N 53°14' E 005°15'7 3.3
2020-Aug-03 06:58N 53°10' E 005°25'0 0.0
2020-Aug-03 05:28N 53°10' E 005°25'0 0.0
2020-Aug-03 04:28N 53°10' E 005°25'0 0.0
2020-Aug-03 03:28N 53°10' E 005°25'0 0.0
2020-Aug-02 23:58N 53°10' E 005°25'0 0.0
2020-Aug-02 17:28N 53°10' E 005°25'0 0.0
2020-Aug-02 16:28N 53°10' E 005°25'0 0.0
2020-Aug-02 13:28N 53°10' E 005°25'0 0.0
2020-Aug-02 12:58N 53°10' E 005°25'0 0.0
2020-Aug-02 12:28N 53°10' E 005°25'0 0.0
2020-Aug-02 10:28N 53°10' E 005°25'0 0.0
2020-Aug-02 09:58N 53°10' E 005°25'0 0.0
2020-Aug-02 06:28N 53°10' E 005°25'0 0.0
2020-Aug-02 04:58N 53°10' E 005°25'0 0.0
2020-Aug-02 04:28N 53°10' E 005°25'0 0.0
2020-Aug-02 03:58N 53°10' E 005°25'0 0.0
2020-Aug-02 02:58N 53°10' E 005°25'0 0.0
2020-Aug-02 01:58N 53°10' E 005°25'0 0.0
2020-Aug-02 00:58N 53°10' E 005°25'0 0.0
2020-Aug-01 22:28N 53°10' E 005°25'0 0.0
2020-Aug-01 16:00N 53°10' E 005°25'8 4.1
2020-Aug-01 14:00N 53°14' E 005°13'7 2.8
2020-Aug-01 11:25N 53°21' E 005°13'0 0.0
2020-Aug-01 02:46N 53°22' E 005°13'0 0.0
2020-Aug-01 02:28N 53°22' E 005°13'0 0.0
2020-Aug-01 00:27N 53°22' E 005°13'0 0.0
2020-Jul-31 17:45N 53°22' E 005°13'0 0.0
2020-Jul-31 11:52N 53°22' E 005°13'0 0.0
2020-Jul-31 09:55N 53°22' E 005°13'0 0.0
2020-Jul-31 06:24N 53°22' E 005°13'0 0.0
2020-Jul-31 06:01N 53°22' E 005°13'0 0.0
2020-Jul-31 04:56N 53°22' E 005°13'0 0.0
2020-Jul-31 03:55N 53°22' E 005°13'0 0.0
2020-Jul-31 00:55N 53°22' E 005°13'0 0.0
2020-Jul-31 00:26N 53°22' E 005°13'0 0.0
2020-Jul-30 22:26N 53°22' E 005°13'0 0.0
2020-Jul-30 21:26N 53°22' E 005°13'0 0.0
2020-Jul-30 20:26N 53°22' E 005°13'0 0.0
2020-Jul-30 19:26N 53°22' E 005°13'0 0.0
2020-Jul-30 13:17N 53°22' E 005°13'4 1.3
2020-Jul-30 10:30N 53°18' E 005°14'4 2.9
2020-Jul-30 09:00N 53°14' E 005°13'3 5.7
2020-Jul-30 08:30N 53°13' E 005°18'10 4.0
2020-Jul-30 06:00N 53°04' E 005°21'2 0.8
2020-Jul-30 04:00N 53°03' E 005°24'0 0.0
2020-Jul-29 21:00N 53°03' E 005°24'0 0.0
2020-Jul-29 20:30N 53°03' E 005°24'0 0.0
2020-Jul-29 19:30N 53°03' E 005°24'0 0.0
2020-Jul-29 17:00N 53°03' E 005°24'0 0.0
2020-Jul-29 16:30N 53°03' E 005°24'2 1.7
2020-Jul-29 15:30N 53°04' E 005°21'3 3.2
2020-Jul-29 14:30N 53°01' E 005°20'19 3.8
2020-Jul-29 09:31N 52°42' E 005°17'0 0.0
2020-Jul-29 05:00N 52°42' E 005°17'0 0.0
2020-Jul-29 02:59N 52°42' E 005°17'0 0.0
2020-Jul-29 00:59N 52°42' E 005°17'0 0.0
2020-Jul-28 23:29N 52°42' E 005°17'0 0.0
2020-Jul-28 19:29N 52°42' E 005°17'0 0.0
2020-Jul-28 16:59N 52°42' E 005°17'0 0.0
2020-Jul-28 14:59N 52°42' E 005°17'5 2.6
2020-Jul-28 13:00N 52°42' E 005°26'9 5.7
2020-Jul-28 11:30N 52°37' E 005°37'2 4.6
2020-Jul-28 11:00N 52°37' E 005°41'2 4.8
2020-Jul-28 10:30N 52°36' E 005°45'1 0.5
2020-Jul-28 09:28N 52°36' E 005°46'  

Dump ship's entire track history